Taurus — WDB5562 — position and weather

sailwx.info

Track history (hours):
 
Tides and Currents Weather Stations Pressure Air Temp Water Temp Dewpoint Dewpoint Depression Visibility Wind Speed Wind Dir Waves Ship Positions

Taurus

Owner: Kirby Offshore Marine, LLC, Staten Island, NY. More information available from US FCC via Universal Licensing System and Coast Guard Vessel Documentation Center.

Last reported at 2015-Feb-01 09:33 UTC. Time now 2015-Feb-01 10:19 UTC.
Position N 40°38' W 074°10'.

Length 24 m.

Type: Tug. MMSI: 366910990.

Date/timePositionNaut miles runAvg speedWind from/ knotsBaromVisibWave heightAir tempDewpointWater temp
2015-Feb-01 09:33N 40°38' W 074°10'0 0.0
2015-Feb-01 08:33N 40°38' W 074°10'0 0.0
2015-Feb-01 07:32N 40°38' W 074°10'0 0.0
2015-Feb-01 06:33N 40°38' W 074°10'0 0.0
2015-Feb-01 05:33N 40°38' W 074°10'0 0.0
2015-Feb-01 04:33N 40°38' W 074°10'0 0.0
2015-Feb-01 03:33N 40°38' W 074°10'2 0.7
2015-Feb-01 00:33N 40°38' W 074°12'2 2.0
2015-Jan-31 23:33N 40°38' W 074°10'0 0.0
2015-Jan-31 22:33N 40°38' W 074°10'0 0.0
2015-Jan-31 21:33N 40°38' W 074°10'0 0.0
2015-Jan-31 20:33N 40°38' W 074°10'0 0.0
2015-Jan-31 19:33N 40°38' W 074°10'0 0.0
2015-Jan-31 18:33N 40°38' W 074°10'0 0.0
2015-Jan-31 17:33N 40°38' W 074°10'0 0.4
2015-Jan-31 16:33N 40°39' W 074°10'0 0.4
2015-Jan-31 15:33N 40°38' W 074°10'1 0.5
2015-Jan-31 13:33N 40°39' W 074°09'4 3.6
2015-Jan-31 12:33N 40°39' W 074°04'0 0.0
2015-Jan-31 11:33N 40°39' W 074°04'0 0.0
2015-Jan-31 10:33N 40°39' W 074°04'0 0.0
2015-Jan-31 09:33N 40°39' W 074°04'0 0.0
2015-Jan-31 08:33N 40°39' W 074°04'4 4.1
2015-Jan-31 07:29N 40°39' W 074°10'4 4.1
2015-Jan-31 06:29N 40°35' W 074°13'3 1.5
2015-Jan-31 04:30N 40°38' W 074°12'2 1.3
2015-Jan-31 03:21N 40°38' W 074°10'0 0.0
2015-Jan-31 02:19N 40°38' W 074°10'0 0.0
2015-Jan-31 01:21N 40°38' W 074°10'0 0.0
2015-Jan-31 00:31N 40°38' W 074°10'0 0.0
2015-Jan-30 23:22N 40°38' W 074°10'0 0.0
2015-Jan-30 22:30N 40°38' W 074°10'1 0.6
2015-Jan-30 21:18N 40°39' W 074°09'1 0.6
2015-Jan-30 20:16N 40°39' W 074°10'2 2.7
2015-Jan-30 19:31N 40°39' W 074°07'9 8.8
2015-Jan-30 18:33N 40°44' W 073°58'5 3.6
2015-Jan-30 17:07N 40°48' W 073°54'2 2.5
2015-Jan-30 16:19N 40°47' W 073°56'5 5.9
2015-Jan-30 15:33N 40°43' W 073°59'6 6.2
2015-Jan-30 14:33N 40°39' W 074°05'1 0.9
2015-Jan-30 13:31N 40°39' W 074°07'1 1.6
2015-Jan-30 12:33N 40°39' W 074°05'6 5.8
2015-Jan-30 11:33N 40°43' W 073°59'17 5.5
2015-Jan-30 08:30N 40°52' W 073°40'2 0.3
2015-Jan-30 01:09N 40°50' W 073°39'2 0.9
2015-Jan-29 23:24N 40°51' W 073°40'5 5.9
2015-Jan-29 22:31N 40°50' W 073°47'7 7.5
2015-Jan-29 21:33N 40°47' W 073°55'6 5.8
2015-Jan-29 20:33N 40°42' W 073°60'8 7.7
2015-Jan-29 19:33N 40°35' W 074°01'7 6.9
2015-Jan-29 18:33N 40°35' W 073°52'6 4.5
2015-Jan-29 17:08N 40°38' W 073°45'0 0.0
2015-Jan-29 16:18N 40°38' W 073°45'0 0.0
2015-Jan-29 15:15N 40°38' W 073°45'0 0.0
2015-Jan-29 14:15N 40°38' W 073°45'0 0.0
2015-Jan-29 11:15N 40°38' W 073°45'1 0.5
2015-Jan-29 08:33N 40°37' W 073°46'6 5.6
2015-Jan-29 07:33N 40°34' W 073°53'7 6.7
2015-Jan-29 06:33N 40°35' W 074°02'6 5.6
2015-Jan-29 05:33N 40°39' W 074°07'5 5.2
2015-Jan-29 04:33N 40°35' W 074°12'3 1.5
2015-Jan-29 02:24N 40°33' W 074°15'7 8.0
2015-Jan-29 01:31N 40°39' W 074°10'0 0.0
2015-Jan-29 00:33N 40°39' W 074°10'0 0.0
2015-Jan-28 23:33N 40°39' W 074°10'0 0.0
2015-Jan-28 22:33N 40°39' W 074°10'0 0.0
2015-Jan-28 21:33N 40°39' W 074°10'0 0.0
2015-Jan-28 20:33N 40°39' W 074°10'0 0.0
2015-Jan-28 19:33N 40°39' W 074°10'0 0.0
2015-Jan-28 18:33N 40°39' W 074°10'7 5.3
2015-Jan-28 17:11N 40°32' W 074°15'8 4.8
2015-Jan-28 15:32N 40°39' W 074°09'6 6.4
2015-Jan-28 14:33N 40°41' W 074°01'29 8.4
2015-Jan-28 11:03N 40°60' W 073°31'4 8.8
2015-Jan-28 10:33N 41°01' W 073°26'9 8.6
2015-Jan-28 09:33N 41°06' W 073°16'9 8.6
2015-Jan-28 08:33N 41°08' W 073°05'9 8.7
2015-Jan-28 07:33N 41°13' W 072°56'5 4.6
2015-Jan-28 06:33N 41°18' W 072°54'0 0.0
2015-Jan-28 05:33N 41°18' W 072°54'0 0.0
2015-Jan-28 04:33N 41°18' W 072°54'0 0.0
2015-Jan-28 03:33N 41°18' W 072°54'0 0.0
2015-Jan-28 02:33N 41°18' W 072°54'0 0.0
2015-Jan-28 01:33N 41°18' W 072°54'0 0.0
2015-Jan-28 00:32N 41°18' W 072°54'0 0.0
2015-Jan-27 23:33N 41°18' W 072°54'0 0.0
2015-Jan-27 22:30N 41°18' W 072°54'0 0.0
2015-Jan-27 20:30N 41°18' W 072°54'0 0.0
2015-Jan-27 19:10N 41°18' W 072°54'0 0.0
2015-Jan-27 18:33N 41°18' W 072°54'0 0.0
2015-Jan-27 17:25N 41°18' W 072°54'0 0.0
2015-Jan-27 16:33N 41°18' W 072°54'0 0.0
2015-Jan-27 15:33N 41°18' W 072°54'0 0.0
2015-Jan-27 14:33N 41°18' W 072°54'0 0.0
2015-Jan-27 13:32N 41°18' W 072°54'0 0.0
2015-Jan-27 12:33N 41°18' W 072°54'0 0.0
2015-Jan-27 11:33N 41°18' W 072°54'0 0.0
2015-Jan-27 10:33N 41°18' W 072°54'0 0.0
2015-Jan-27 09:33N 41°18' W 072°54'0 0.0
2015-Jan-27 08:33N 41°18' W 072°54'0 0.0
2015-Jan-27 07:33N 41°18' W 072°54'0 0.0
2015-Jan-27 06:33N 41°18' W 072°54'0 0.0
2015-Jan-27 05:33N 41°18' W 072°54'0 0.0
2015-Jan-27 04:33N 41°18' W 072°54'0 0.0
2015-Jan-27 03:33N 41°18' W 072°54'0 0.0
2015-Jan-27 02:31N 41°18' W 072°54'0 0.0
2015-Jan-27 01:32N 41°18' W 072°54'0 0.0
2015-Jan-27 00:29N 41°18' W 072°54'0 0.0
2015-Jan-26 23:13N 41°18' W 072°54'0 0.0
2015-Jan-26 22:32N 41°18' W 072°54'0 0.0
2015-Jan-26 21:31N 41°18' W 072°54'0 0.0
2015-Jan-26 20:18N 41°18' W 072°54'0 0.0
2015-Jan-26 19:27N 41°18' W 072°54'0 0.0
2015-Jan-26 18:31N 41°18' W 072°54'0 0.0
2015-Jan-26 17:33N 41°18' W 072°54'0 0.0
2015-Jan-26 16:33N 41°18' W 072°54'0 0.4
2015-Jan-26 15:26N 41°18' W 072°54'0 0.0
2015-Jan-26 14:21N 41°18' W 072°54'0 0.0
2015-Jan-26 13:28N 41°18' W 072°54'0 0.0
2015-Jan-26 12:19N 41°18' W 072°54'0 0.0
2015-Jan-26 11:31N 41°18' W 072°54'0 0.0
2015-Jan-26 10:29N 41°18' W 072°54'0 0.1
2015-Jan-26 05:19N 41°18' W 072°54'0 0.0
2015-Jan-26 04:28N 41°18' W 072°54'3 1.0
2015-Jan-26 01:33N 41°15' W 072°55'7 7.1
2015-Jan-26 00:32N 41°10' W 073°02'8 7.6
2015-Jan-25 23:31N 41°06' W 073°11'8 8.0
2015-Jan-25 22:33N 41°03' W 073°20'8 7.7
2015-Jan-25 21:32N 41°00' W 073°30'14 6.9
2015-Jan-25 19:29N 40°52' W 073°45'12 6.4
2015-Jan-25 17:33N 40°44' W 073°58'5 4.7
2015-Jan-25 16:33N 40°41' W 074°02'5 5.1
2015-Jan-25 15:33N 40°39' W 074°08'6 5.0
2015-Jan-25 14:21N 40°34' W 074°13'2 2.4
2015-Jan-25 13:22N 40°32' W 074°15'5 5.8
2015-Jan-25 12:33N 40°37' W 074°12'4 3.6
2015-Jan-25 11:33N 40°39' W 074°08'2 2.5
2015-Jan-25 10:33N 40°39' W 074°05'6 4.4
2015-Jan-25 09:18N 40°38' W 074°12'2 2.1
2015-Jan-25 08:32N 40°39' W 074°11'1 0.7
2015-Jan-25 07:23N 40°39' W 074°10'2 2.4
2015-Jan-25 06:32N 40°38' W 074°12'0 0.5
2015-Jan-25 05:31N 40°38' W 074°12'0 0.0
2015-Jan-25 04:33N 40°38' W 074°12'4 4.0
2015-Jan-25 03:33N 40°34' W 074°13'0 0.3
2015-Jan-25 02:24N 40°34' W 074°13'5 6.0
2015-Jan-25 01:32N 40°39' W 074°09'1 1.5
2015-Jan-25 00:33N 40°39' W 074°07'3 3.1
2015-Jan-24 23:33N 40°39' W 074°11'4 3.5
2015-Jan-24 22:30N 40°35' W 074°13'0 0.0
2015-Jan-24 21:26N 40°35' W 074°13'0 0.0
2015-Jan-24 20:08N 40°35' W 074°13'0 0.0
2015-Jan-24 19:32N 40°35' W 074°13'3 2.4
2015-Jan-24 18:12N 40°33' W 074°15'5 3.3
2015-Jan-24 16:33N 40°37' W 074°12'4 4.5
2015-Jan-24 15:33N 40°39' W 074°07'6 6.1
2015-Jan-24 14:33N 40°44' W 074°01'7 1.3
2015-Jan-24 09:31N 40°50' W 073°58'6 6.6
2015-Jan-24 08:33N 40°44' W 074°01'5 5.4
2015-Jan-24 07:33N 40°39' W 074°05'8 7.7
2015-Jan-24 06:33N 40°45' W 073°58'4 3.1
2015-Jan-24 05:20N 40°48' W 073°55'6 7.5
2015-Jan-24 04:33N 40°43' W 073°58'5 5.0
2015-Jan-24 03:34N 40°40' W 074°03'2 2.5
2015-Jan-24 02:33N 40°39' W 074°07'1 0.8
2015-Jan-24 01:33N 40°39' W 074°08'5 1.7
2015-Jan-23 22:28N 40°35' W 074°13'4 4.3
2015-Jan-23 21:32N 40°39' W 074°10'3 3.2
2015-Jan-23 20:33N 40°39' W 074°06'2 2.0
2015-Jan-23 19:33N 40°38' W 074°04'0 0.1
2015-Jan-23 18:33N 40°38' W 074°04'0 0.1
2015-Jan-23 17:33N 40°38' W 074°04'2 2.1
2015-Jan-23 16:33N 40°40' W 074°04'2 1.8
2015-Jan-23 15:33N 40°39' W 074°07'1 1.2
2015-Jan-23 14:33N 40°39' W 074°05'2 1.7
2015-Jan-23 13:33N 40°39' W 074°07'0 0.0
2015-Jan-23 12:34N 40°39' W 074°07'5 3.2
2015-Jan-23 11:03N 40°36' W 074°12'2 0.5
2015-Jan-23 07:28N 40°37' W 074°12'2 2.2
2015-Jan-23 06:33N 40°38' W 074°10'0 0.0
2015-Jan-23 05:33N 40°38' W 074°10'0 0.0
2015-Jan-23 04:33N 40°38' W 074°10'0 0.0
2015-Jan-23 03:33N 40°38' W 074°10'4 3.6
2015-Jan-23 02:33N 40°39' W 074°05'2 2.0
2015-Jan-23 01:33N 40°39' W 074°08'4 4.0
2015-Jan-23 00:31N 40°36' W 074°12'3 1.0
2015-Jan-22 21:33N 40°38' W 074°09'3 3.4
2015-Jan-22 20:33N 40°39' W 074°05'2 1.6
2015-Jan-22 19:33N 40°39' W 074°07'0 0.0
2015-Jan-22 18:33N 40°39' W 074°07'0 0.0
2015-Jan-22 17:33N 40°39' W 074°07'3 3.4
2015-Jan-22 16:33N 40°40' W 074°03'5 5.4
2015-Jan-22 15:33N 40°38' W 074°10'0 0.1
2015-Jan-22 14:33N 40°38' W 074°10'3 2.7
2015-Jan-22 13:33N 40°36' W 074°12'  
Track history (hours):
 
Tides and Currents Weather Stations Pressure Air Temp Water Temp Dewpoint Dewpoint Depression Visibility Wind Speed Wind Dir Waves Ship Positions

Taurus

Owner: Kirby Offshore Marine, LLC, Staten Island, NY. More information available from US FCC via Universal Licensing System and Coast Guard Vessel Documentation Center.

Last reported at 2015-Feb-01 09:33 UTC. Time now 2015-Feb-01 10:19 UTC.
Position N 40°38' W 074°10'.

Length 24 m.

Type: Tug. MMSI: 366910990.

Date/timePositionNaut miles runAvg speedWind from/ knotsBaromVisibWave heightAir tempDewpointWater temp
2015-Feb-01 09:33N 40°38' W 074°10'0 0.0
2015-Feb-01 08:33N 40°38' W 074°10'0 0.0
2015-Feb-01 07:32N 40°38' W 074°10'0 0.0
2015-Feb-01 06:33N 40°38' W 074°10'0 0.0
2015-Feb-01 05:33N 40°38' W 074°10'0 0.0
2015-Feb-01 04:33N 40°38' W 074°10'0 0.0
2015-Feb-01 03:33N 40°38' W 074°10'2 0.7
2015-Feb-01 00:33N 40°38' W 074°12'2 2.0
2015-Jan-31 23:33N 40°38' W 074°10'0 0.0
2015-Jan-31 22:33N 40°38' W 074°10'0 0.0
2015-Jan-31 21:33N 40°38' W 074°10'0 0.0
2015-Jan-31 20:33N 40°38' W 074°10'0 0.0
2015-Jan-31 19:33N 40°38' W 074°10'0 0.0
2015-Jan-31 18:33N 40°38' W 074°10'0 0.0
2015-Jan-31 17:33N 40°38' W 074°10'0 0.4
2015-Jan-31 16:33N 40°39' W 074°10'0 0.4
2015-Jan-31 15:33N 40°38' W 074°10'1 0.5
2015-Jan-31 13:33N 40°39' W 074°09'4 3.6
2015-Jan-31 12:33N 40°39' W 074°04'0 0.0
2015-Jan-31 11:33N 40°39' W 074°04'0 0.0
2015-Jan-31 10:33N 40°39' W 074°04'0 0.0
2015-Jan-31 09:33N 40°39' W 074°04'0 0.0
2015-Jan-31 08:33N 40°39' W 074°04'4 4.1
2015-Jan-31 07:29N 40°39' W 074°10'4 4.1
2015-Jan-31 06:29N 40°35' W 074°13'3 1.5
2015-Jan-31 04:30N 40°38' W 074°12'2 1.3
2015-Jan-31 03:21N 40°38' W 074°10'0 0.0
2015-Jan-31 02:19N 40°38' W 074°10'0 0.0
2015-Jan-31 01:21N 40°38' W 074°10'0 0.0
2015-Jan-31 00:31N 40°38' W 074°10'0 0.0
2015-Jan-30 23:22N 40°38' W 074°10'0 0.0
2015-Jan-30 22:30N 40°38' W 074°10'1 0.6
2015-Jan-30 21:18N 40°39' W 074°09'1 0.6
2015-Jan-30 20:16N 40°39' W 074°10'2 2.7
2015-Jan-30 19:31N 40°39' W 074°07'9 8.8
2015-Jan-30 18:33N 40°44' W 073°58'5 3.6
2015-Jan-30 17:07N 40°48' W 073°54'2 2.5
2015-Jan-30 16:19N 40°47' W 073°56'5 5.9
2015-Jan-30 15:33N 40°43' W 073°59'6 6.2
2015-Jan-30 14:33N 40°39' W 074°05'1 0.9
2015-Jan-30 13:31N 40°39' W 074°07'1 1.6
2015-Jan-30 12:33N 40°39' W 074°05'6 5.8
2015-Jan-30 11:33N 40°43' W 073°59'17 5.5
2015-Jan-30 08:30N 40°52' W 073°40'2 0.3
2015-Jan-30 01:09N 40°50' W 073°39'2 0.9
2015-Jan-29 23:24N 40°51' W 073°40'5 5.9
2015-Jan-29 22:31N 40°50' W 073°47'7 7.5
2015-Jan-29 21:33N 40°47' W 073°55'6 5.8
2015-Jan-29 20:33N 40°42' W 073°60'8 7.7
2015-Jan-29 19:33N 40°35' W 074°01'7 6.9
2015-Jan-29 18:33N 40°35' W 073°52'6 4.5
2015-Jan-29 17:08N 40°38' W 073°45'0 0.0
2015-Jan-29 16:18N 40°38' W 073°45'0 0.0
2015-Jan-29 15:15N 40°38' W 073°45'0 0.0
2015-Jan-29 14:15N 40°38' W 073°45'0 0.0
2015-Jan-29 11:15N 40°38' W 073°45'1 0.5
2015-Jan-29 08:33N 40°37' W 073°46'6 5.6
2015-Jan-29 07:33N 40°34' W 073°53'7 6.7
2015-Jan-29 06:33N 40°35' W 074°02'6 5.6
2015-Jan-29 05:33N 40°39' W 074°07'5 5.2
2015-Jan-29 04:33N 40°35' W 074°12'3 1.5
2015-Jan-29 02:24N 40°33' W 074°15'7 8.0
2015-Jan-29 01:31N 40°39' W 074°10'0 0.0
2015-Jan-29 00:33N 40°39' W 074°10'0 0.0
2015-Jan-28 23:33N 40°39' W 074°10'0 0.0
2015-Jan-28 22:33N 40°39' W 074°10'0 0.0
2015-Jan-28 21:33N 40°39' W 074°10'0 0.0
2015-Jan-28 20:33N 40°39' W 074°10'0 0.0
2015-Jan-28 19:33N 40°39' W 074°10'0 0.0
2015-Jan-28 18:33N 40°39' W 074°10'7 5.3
2015-Jan-28 17:11N 40°32' W 074°15'8 4.8
2015-Jan-28 15:32N 40°39' W 074°09'6 6.4
2015-Jan-28 14:33N 40°41' W 074°01'29 8.4
2015-Jan-28 11:03N 40°60' W 073°31'4 8.8
2015-Jan-28 10:33N 41°01' W 073°26'9 8.6
2015-Jan-28 09:33N 41°06' W 073°16'9 8.6
2015-Jan-28 08:33N 41°08' W 073°05'9 8.7
2015-Jan-28 07:33N 41°13' W 072°56'5 4.6
2015-Jan-28 06:33N 41°18' W 072°54'0 0.0
2015-Jan-28 05:33N 41°18' W 072°54'0 0.0
2015-Jan-28 04:33N 41°18' W 072°54'0 0.0
2015-Jan-28 03:33N 41°18' W 072°54'0 0.0
2015-Jan-28 02:33N 41°18' W 072°54'0 0.0
2015-Jan-28 01:33N 41°18' W 072°54'0 0.0
2015-Jan-28 00:32N 41°18' W 072°54'0 0.0
2015-Jan-27 23:33N 41°18' W 072°54'0 0.0
2015-Jan-27 22:30N 41°18' W 072°54'0 0.0
2015-Jan-27 20:30N 41°18' W 072°54'0 0.0
2015-Jan-27 19:10N 41°18' W 072°54'0 0.0
2015-Jan-27 18:33N 41°18' W 072°54'0 0.0
2015-Jan-27 17:25N 41°18' W 072°54'0 0.0
2015-Jan-27 16:33N 41°18' W 072°54'0 0.0
2015-Jan-27 15:33N 41°18' W 072°54'0 0.0
2015-Jan-27 14:33N 41°18' W 072°54'0 0.0
2015-Jan-27 13:32N 41°18' W 072°54'0 0.0
2015-Jan-27 12:33N 41°18' W 072°54'0 0.0
2015-Jan-27 11:33N 41°18' W 072°54'0 0.0
2015-Jan-27 10:33N 41°18' W 072°54'0 0.0
2015-Jan-27 09:33N 41°18' W 072°54'0 0.0
2015-Jan-27 08:33N 41°18' W 072°54'0 0.0
2015-Jan-27 07:33N 41°18' W 072°54'0 0.0
2015-Jan-27 06:33N 41°18' W 072°54'0 0.0
2015-Jan-27 05:33N 41°18' W 072°54'0 0.0
2015-Jan-27 04:33N 41°18' W 072°54'0 0.0
2015-Jan-27 03:33N 41°18' W 072°54'0 0.0
2015-Jan-27 02:31N 41°18' W 072°54'0 0.0
2015-Jan-27 01:32N 41°18' W 072°54'0 0.0
2015-Jan-27 00:29N 41°18' W 072°54'0 0.0
2015-Jan-26 23:13N 41°18' W 072°54'0 0.0
2015-Jan-26 22:32N 41°18' W 072°54'0 0.0
2015-Jan-26 21:31N 41°18' W 072°54'0 0.0
2015-Jan-26 20:18N 41°18' W 072°54'0 0.0
2015-Jan-26 19:27N 41°18' W 072°54'0 0.0
2015-Jan-26 18:31N 41°18' W 072°54'0 0.0
2015-Jan-26 17:33N 41°18' W 072°54'0 0.0
2015-Jan-26 16:33N 41°18' W 072°54'0 0.4
2015-Jan-26 15:26N 41°18' W 072°54'0 0.0
2015-Jan-26 14:21N 41°18' W 072°54'0 0.0
2015-Jan-26 13:28N 41°18' W 072°54'0 0.0
2015-Jan-26 12:19N 41°18' W 072°54'0 0.0
2015-Jan-26 11:31N 41°18' W 072°54'0 0.0
2015-Jan-26 10:29N 41°18' W 072°54'0 0.1
2015-Jan-26 05:19N 41°18' W 072°54'0 0.0
2015-Jan-26 04:28N 41°18' W 072°54'3 1.0
2015-Jan-26 01:33N 41°15' W 072°55'7 7.1
2015-Jan-26 00:32N 41°10' W 073°02'8 7.6
2015-Jan-25 23:31N 41°06' W 073°11'8 8.0
2015-Jan-25 22:33N 41°03' W 073°20'8 7.7
2015-Jan-25 21:32N 41°00' W 073°30'14 6.9
2015-Jan-25 19:29N 40°52' W 073°45'12 6.4
2015-Jan-25 17:33N 40°44' W 073°58'5 4.7
2015-Jan-25 16:33N 40°41' W 074°02'5 5.1
2015-Jan-25 15:33N 40°39' W 074°08'6 5.0
2015-Jan-25 14:21N 40°34' W 074°13'2 2.4
2015-Jan-25 13:22N 40°32' W 074°15'5 5.8
2015-Jan-25 12:33N 40°37' W 074°12'4 3.6
2015-Jan-25 11:33N 40°39' W 074°08'2 2.5
2015-Jan-25 10:33N 40°39' W 074°05'6 4.4
2015-Jan-25 09:18N 40°38' W 074°12'2 2.1
2015-Jan-25 08:32N 40°39' W 074°11'1 0.7
2015-Jan-25 07:23N 40°39' W 074°10'2 2.4
2015-Jan-25 06:32N 40°38' W 074°12'0 0.5
2015-Jan-25 05:31N 40°38' W 074°12'0 0.0
2015-Jan-25 04:33N 40°38' W 074°12'4 4.0
2015-Jan-25 03:33N 40°34' W 074°13'0 0.3
2015-Jan-25 02:24N 40°34' W 074°13'5 6.0
2015-Jan-25 01:32N 40°39' W 074°09'1 1.5
2015-Jan-25 00:33N 40°39' W 074°07'3 3.1
2015-Jan-24 23:33N 40°39' W 074°11'4 3.5
2015-Jan-24 22:30N 40°35' W 074°13'0 0.0
2015-Jan-24 21:26N 40°35' W 074°13'0 0.0
2015-Jan-24 20:08N 40°35' W 074°13'0 0.0
2015-Jan-24 19:32N 40°35' W 074°13'3 2.4
2015-Jan-24 18:12N 40°33' W 074°15'5 3.3
2015-Jan-24 16:33N 40°37' W 074°12'4 4.5
2015-Jan-24 15:33N 40°39' W 074°07'6 6.1
2015-Jan-24 14:33N 40°44' W 074°01'7 1.3
2015-Jan-24 09:31N 40°50' W 073°58'6 6.6
2015-Jan-24 08:33N 40°44' W 074°01'5 5.4
2015-Jan-24 07:33N 40°39' W 074°05'8 7.7
2015-Jan-24 06:33N 40°45' W 073°58'4 3.1
2015-Jan-24 05:20N 40°48' W 073°55'6 7.5
2015-Jan-24 04:33N 40°43' W 073°58'5 5.0
2015-Jan-24 03:34N 40°40' W 074°03'2 2.5
2015-Jan-24 02:33N 40°39' W 074°07'1 0.8
2015-Jan-24 01:33N 40°39' W 074°08'5 1.7
2015-Jan-23 22:28N 40°35' W 074°13'4 4.3
2015-Jan-23 21:32N 40°39' W 074°10'3 3.2
2015-Jan-23 20:33N 40°39' W 074°06'2 2.0
2015-Jan-23 19:33N 40°38' W 074°04'0 0.1
2015-Jan-23 18:33N 40°38' W 074°04'0 0.1
2015-Jan-23 17:33N 40°38' W 074°04'2 2.1
2015-Jan-23 16:33N 40°40' W 074°04'2 1.8
2015-Jan-23 15:33N 40°39' W 074°07'1 1.2
2015-Jan-23 14:33N 40°39' W 074°05'2 1.7
2015-Jan-23 13:33N 40°39' W 074°07'0 0.0
2015-Jan-23 12:34N 40°39' W 074°07'5 3.2
2015-Jan-23 11:03N 40°36' W 074°12'2 0.5
2015-Jan-23 07:28N 40°37' W 074°12'2 2.2
2015-Jan-23 06:33N 40°38' W 074°10'0 0.0
2015-Jan-23 05:33N 40°38' W 074°10'0 0.0
2015-Jan-23 04:33N 40°38' W 074°10'0 0.0
2015-Jan-23 03:33N 40°38' W 074°10'4 3.6
2015-Jan-23 02:33N 40°39' W 074°05'2 2.0
2015-Jan-23 01:33N 40°39' W 074°08'4 4.0
2015-Jan-23 00:31N 40°36' W 074°12'3 1.0
2015-Jan-22 21:33N 40°38' W 074°09'3 3.4
2015-Jan-22 20:33N 40°39' W 074°05'2 1.6
2015-Jan-22 19:33N 40°39' W 074°07'0 0.0
2015-Jan-22 18:33N 40°39' W 074°07'0 0.0
2015-Jan-22 17:33N 40°39' W 074°07'3 3.4
2015-Jan-22 16:33N 40°40' W 074°03'5 5.4
2015-Jan-22 15:33N 40°38' W 074°10'0 0.1
2015-Jan-22 14:33N 40°38' W 074°10'3 2.7
2015-Jan-22 13:33N 40°36' W 074°12'  

Dump ship's entire track history